Time;durP1;ratioP1;P1;durP2;ratioP2;P2;SDS_P1;SDS_P2;PMS_P1;PMS_P2;Temp;Humidity;BMP_temperature;BMP_pressure;BME280_temperature;BME280_humidity;BME280_pressure;Samples;Min_cycle;Max_cycle;Signal;HPM_P1;HPM_P2
2022/12/24 00:01:51;;;;;;;0.10;0.10;;;;;;;9.12;100.00;100542.66;4997948;28;20095;-72
2022/12/24 00:04:17;;;;;;;0.20;0.20;;;;;;;9.16;100.00;100545.94;4992881;28;20417;-73
2022/12/24 00:06:43;;;;;;;0.10;0.10;;;;;;;8.95;100.00;100510.97;4995217;28;20030;-76
2022/12/24 00:09:08;;;;;;;0.20;0.20;;;;;;;9.09;100.00;100561.63;4995445;28;20034;-76
2022/12/24 00:11:34;;;;;;;0.20;0.20;;;;;;;8.93;100.00;100532.47;4978969;28;20435;-76
2022/12/24 00:13:59;;;;;;;0.20;0.20;;;;;;;8.96;100.00;100537.59;4993072;28;20037;-75
2022/12/24 00:16:25;;;;;;;0.20;0.20;;;;;;;8.95;100.00;100554.63;4990319;28;20030;-76
2022/12/24 00:18:50;;;;;;;0.20;0.20;;;;;;;8.96;100.00;100568.91;4995781;28;20061;-75
2022/12/24 00:21:16;;;;;;;0.20;0.20;;;;;;;8.90;100.00;100554.13;4997343;28;20076;-72
2022/12/24 00:23:42;;;;;;;0.10;0.10;;;;;;;9.00;100.00;100573.06;4999289;28;20064;-75
2022/12/24 00:26:07;;;;;;;0.20;0.20;;;;;;;8.91;100.00;100555.84;4998706;28;20044;-75
2022/12/24 00:28:32;;;;;;;0.20;0.20;;;;;;;9.04;100.00;100585.22;4995707;28;20916;-75
2022/12/24 00:30:58;;;;;;;0.20;0.20;;;;;;;8.95;100.00;100568.03;4986837;28;20052;-75
2022/12/24 00:33:23;;;;;;;0.20;0.20;;;;;;;8.94;100.00;100571.66;4986172;28;20104;-76
2022/12/24 00:35:50;;;;;;;0.20;0.20;;;;;;;8.96;100.00;100582.28;5002129;28;20037;-74
2022/12/24 00:38:15;;;;;;;0.20;0.20;;;;;;;9.04;100.00;100582.53;4981767;28;20095;-74
2022/12/24 00:40:40;;;;;;;0.20;0.20;;;;;;;8.95;100.00;100567.19;4988055;28;20678;-75
2022/12/24 00:43:06;;;;;;;0.20;0.20;;;;;;;8.99;100.00;100585.56;4994265;28;20084;-75
2022/12/24 00:45:31;;;;;;;0.20;0.20;;;;;;;9.03;100.00;100609.44;4979250;28;20891;-74
2022/12/24 00:47:56;;;;;;;0.20;0.20;;;;;;;8.92;100.00;100605.75;4987482;28;20037;-74
2022/12/24 00:50:22;;;;;;;0.17;0.17;;;;;;;8.94;100.00;100597.59;4976385;28;22294;-75
2022/12/24 00:52:47;;;;;;;0.20;0.20;;;;;;;8.88;100.00;100595.38;4995411;28;20468;-74
2022/12/24 00:55:12;;;;;;;0.20;0.20;;;;;;;8.91;100.00;100620.09;4987138;28;20038;-74
2022/12/24 00:57:38;;;;;;;0.17;0.17;;;;;;;9.10;100.00;100630.28;4978713;28;20092;-75
2022/12/24 01:00:04;;;;;;;0.30;0.30;;;;;;;9.19;100.00;100635.94;4993853;28;20148;-74
2022/12/24 01:02:29;;;;;;;0.20;0.20;;;;;;;9.12;100.00;100617.63;4993754;28;20033;-75
2022/12/24 01:05:09;;;;;;;0.20;0.20;;;;;;;9.10;100.00;100627.59;4995604;28;20030;-75
2022/12/24 01:07:36;;;;;;;0.20;0.20;;;;;;;9.17;100.00;100643.22;4999282;28;20172;-73
2022/12/24 01:10:02;;;;;;;0.20;0.20;;;;;;;9.12;100.00;100638.22;4998540;28;20529;-75
2022/12/24 01:12:28;;;;;;;0.30;0.30;;;;;;;9.06;100.00;100644.03;4996087;28;20120;-76
2022/12/24 01:14:53;;;;;;;0.20;0.20;;;;;;;9.32;100.00;100652.78;4997965;28;20029;-74
2022/12/24 01:17:18;;;;;;;0.28;0.28;;;;;;;9.15;100.00;100646.00;4983046;28;20351;-77
2022/12/24 01:19:44;;;;;;;0.10;0.10;;;;;;;9.15;100.00;100638.84;4999662;28;20136;-74
2022/12/24 01:22:09;;;;;;;0.10;0.10;;;;;;;9.15;100.00;100630.81;5004854;28;20076;-73
2022/12/24 01:24:34;;;;;;;0.20;0.20;;;;;;;8.99;100.00;100630.25;4998332;28;20389;-73
2022/12/24 01:27:00;;;;;;;0.30;0.30;;;;;;;9.14;100.00;100647.84;4997008;28;20113;-74
2022/12/24 01:29:25;;;;;;;0.20;0.20;;;;;;;9.15;100.00;100664.75;4983089;28;20084;-73
2022/12/24 01:31:50;;;;;;;0.20;0.20;;;;;;;9.05;100.00;100656.56;4980897;28;20419;-74
2022/12/24 01:34:16;;;;;;;0.20;0.20;;;;;;;9.07;100.00;100656.47;4995849;28;20029;-74
2022/12/24 01:36:41;;;;;;;0.20;0.20;;;;;;;8.98;100.00;100652.66;4983140;28;20034;-75
2022/12/24 01:39:06;;;;;;;0.10;0.10;;;;;;;8.97;100.00;100645.59;4996350;28;20040;-73
2022/12/24 01:44:30;;;;;;;0.20;0.20;;;;;;;9.06;100.00;100679.69;4998338;28;20061;-74
2022/12/24 01:47:16;;;;;;;0.10;0.10;;;;;;;9.11;100.00;100693.59;4995995;28;20064;-74
2022/12/24 01:49:48;;;;;;;0.17;0.17;;;;;;;9.08;100.00;100701.88;5012057;28;20030;-73
2022/12/24 01:52:34;;;;;;;0.20;0.20;;;;;;;8.81;100.00;100677.97;4993063;28;20032;-75
2022/12/24 01:55:05;;;;;;;0.10;0.10;;;;;;;9.06;100.00;100702.97;5006095;28;20526;-73
2022/12/24 01:57:37;;;;;;;0.20;0.20;;;;;;;8.91;100.00;100712.97;5022236;28;20056;-73
2022/12/24 02:00:06;;;;;;;0.20;0.20;;;;;;;8.75;100.00;100702.50;5001247;28;20583;-73
2022/12/24 02:02:32;;;;;;;0.20;0.20;;;;;;;8.49;100.00;100675.81;4997436;28;20042;-72
2022/12/24 02:05:14;;;;;;;0.20;0.20;;;;;;;8.55;100.00;100711.00;5000907;28;20029;-73
2022/12/24 02:07:41;;;;;;;0.20;0.20;;;;;;;8.52;100.00;100710.38;5003727;28;20029;-73
2022/12/24 02:10:08;;;;;;;0.20;0.20;;;;;;;8.58;100.00;100712.63;4998664;28;20029;-73
2022/12/24 02:12:34;;;;;;;0.20;0.20;;;;;;;8.39;100.00;100699.66;4987771;28;20113;-73
2022/12/24 02:15:00;;;;;;;0.20;0.20;;;;;;;8.45;100.00;100728.66;4991864;28;20054;-73
2022/12/24 02:17:34;;;;;;;0.20;0.20;;;;;;;8.48;100.00;100738.28;4994618;28;20113;-73
2022/12/24 02:20:48;;;;;;;0.20;0.20;;;;;;;8.38;100.00;100735.41;4992197;28;20416;-73
2022/12/24 02:23:52;;;;;;;0.20;0.20;;;;;;;8.32;100.00;100741.19;4970103;28;20051;-73
2022/12/24 02:26:32;;;;;;;0.10;0.10;;;;;;;8.32;100.00;100735.81;4985939;28;20121;-73
2022/12/24 02:29:13;;;;;;;0.20;0.20;;;;;;;8.31;100.00;100742.13;4993800;28;20026;-74
2022/12/24 02:31:43;;;;;;;0.20;0.20;;;;;;;8.30;100.00;100743.09;4985809;28;20060;-73
2022/12/24 02:34:15;;;;;;;0.20;0.20;;;;;;;8.25;100.00;100736.25;4991705;28;20069;-72
2022/12/24 02:36:58;;;;;;;0.20;0.20;;;;;;;8.26;100.00;100729.09;4970368;28;20030;-74
2022/12/24 02:39:40;;;;;;;0.20;0.20;;;;;;;8.38;100.00;100725.53;4994429;28;20109;-73
2022/12/24 02:42:07;;;;;;;0.20;0.20;;;;;;;8.51;100.00;100720.22;4992988;28;20087;-74
2022/12/24 02:44:38;;;;;;;0.20;0.20;;;;;;;8.65;100.00;100747.81;4999886;28;20144;-73
2022/12/24 02:47:05;;;;;;;0.30;0.30;;;;;;;8.59;100.00;100730.41;4982146;28;20359;-72
2022/12/24 02:49:30;;;;;;;0.20;0.20;;;;;;;8.52;100.00;100721.91;4999569;28;20033;-74
2022/12/24 02:51:55;;;;;;;0.30;0.30;;;;;;;8.59;100.00;100733.06;4991478;28;20052;-74
2022/12/24 02:54:21;;;;;;;0.10;0.10;;;;;;;8.57;100.00;100724.28;4999631;28;20073;-73
2022/12/24 02:57:04;;;;;;;0.20;0.20;;;;;;;8.58;100.00;100746.53;4997356;28;20034;-72
2022/12/24 02:59:57;;;;;;;0.20;0.20;;;;;;;8.66;100.00;100744.19;4998191;28;20029;-72
2022/12/24 03:02:53;;;;;;;0.15;0.15;;;;;;;8.61;100.00;100741.81;5005398;28;20494;-72
2022/12/24 03:05:43;;;;;;;0.20;0.20;;;;;;;8.71;100.00;100752.75;4995256;28;20411;-73
2022/12/24 03:08:16;;;;;;;0.17;0.17;;;;;;;8.53;100.00;100738.84;4986046;28;20021;-72
2022/12/24 03:10:54;;;;;;;0.30;0.30;;;;;;;8.53;100.00;100725.47;5013812;28;20044;-72
2022/12/24 03:13:21;;;;;;;0.20;0.20;;;;;;;8.65;100.00;100742.47;4993019;28;20037;-72
2022/12/24 03:15:47;;;;;;;0.20;0.20;;;;;;;8.51;100.00;100741.63;4980140;28;20026;-72
2022/12/24 03:18:18;;;;;;;0.30;0.30;;;;;;;8.44;100.00;100718.94;5001018;28;20495;-73
2022/12/24 03:20:57;;;;;;;0.20;0.20;;;;;;;8.43;100.00;100737.75;4993533;28;20034;-73
2022/12/24 03:23:22;;;;;;;0.20;0.20;;;;;;;8.42;100.00;100726.19;5019061;28;20031;-72
2022/12/24 03:25:48;;;;;;;0.10;0.10;;;;;;;8.52;100.00;100753.19;4997357;28;20444;-72
2022/12/24 03:28:15;;;;;;;0.20;0.20;;;;;;;8.47;100.00;100755.31;5008251;28;20121;-72
2022/12/24 03:30:42;;;;;;;0.22;0.22;;;;;;;8.37;100.00;100741.72;5016382;28;20036;-73
2022/12/24 03:33:08;;;;;;;0.28;0.28;;;;;;;8.29;100.00;100728.88;5005146;28;20037;-72
2022/12/24 03:35:34;;;;;;;0.25;0.25;;;;;;;8.45;100.00;100751.88;5013617;28;20026;-73
2022/12/24 03:37:59;;;;;;;0.30;0.30;;;;;;;8.29;100.00;100722.66;5001335;28;20519;-74
2022/12/24 03:40:24;;;;;;;0.30;0.30;;;;;;;8.43;100.00;100740.41;5004563;28;20068;-74
2022/12/24 03:42:50;;;;;;;0.20;0.20;;;;;;;8.42;100.00;100760.97;5001397;28;20497;-72
2022/12/24 03:45:15;;;;;;;0.20;0.20;;;;;;;8.49;100.00;100750.72;4999160;28;20106;-72
2022/12/24 03:47:40;;;;;;;0.30;0.30;;;;;;;8.45;100.00;100754.56;5000375;28;20481;-72
2022/12/24 03:50:06;;;;;;;0.30;0.30;;;;;;;8.55;100.00;100772.56;5002275;28;20696;-72
2022/12/24 03:52:31;;;;;;;0.20;0.20;;;;;;;8.58;100.00;100768.81;5003454;28;20112;-72
2022/12/24 03:54:57;;;;;;;0.20;0.20;;;;;;;8.68;100.00;100771.69;5003338;28;20058;-72
2022/12/24 03:57:22;;;;;;;0.20;0.20;;;;;;;8.72;100.00;100775.88;4987116;28;20129;-73
2022/12/24 03:59:47;;;;;;;0.20;0.20;;;;;;;8.67;100.00;100756.59;5001196;28;20124;-73
2022/12/24 04:02:13;;;;;;;0.30;0.30;;;;;;;8.82;100.00;100776.91;5002125;28;20462;-72
2022/12/24 04:04:38;;;;;;;0.20;0.20;;;;;;;8.82;100.00;100774.25;5005350;28;20156;-74
2022/12/24 04:07:04;;;;;;;0.30;0.30;;;;;;;8.91;100.00;100783.44;5004185;28;20163;-72
2022/12/24 04:09:29;;;;;;;0.20;0.20;;;;;;;8.74;100.00;100765.03;4997197;28;20038;-72
2022/12/24 04:11:55;;;;;;;0.20;0.20;;;;;;;8.82;100.00;100789.47;4994453;28;20026;-72
2022/12/24 04:14:20;;;;;;;0.30;0.30;;;;;;;8.75;100.00;100780.97;5002356;28;20065;-72
2022/12/24 04:16:45;;;;;;;0.20;0.20;;;;;;;8.70;100.00;100775.13;5001408;28;20030;-72
2022/12/24 04:19:11;;;;;;;0.30;0.30;;;;;;;8.74;100.00;100778.44;5000916;28;20097;-74
2022/12/24 04:21:36;;;;;;;0.20;0.20;;;;;;;8.87;100.00;100797.16;4999340;28;20471;-72
2022/12/24 04:24:01;;;;;;;0.30;0.30;;;;;;;8.82;100.00;100798.31;5000220;28;20480;-72
2022/12/24 04:26:27;;;;;;;0.20;0.20;;;;;;;8.86;100.00;100801.66;5000007;28;20077;-72
2022/12/24 04:28:52;;;;;;;0.20;0.20;;;;;;;8.95;100.00;100800.16;4996302;28;20553;-72
2022/12/24 04:31:17;;;;;;;0.20;0.20;;;;;;;9.05;100.00;100806.53;4999903;28;20506;-73
2022/12/24 04:33:44;;;;;;;0.20;0.20;;;;;;;8.91;100.00;100779.91;5002674;28;20060;-72
2022/12/24 04:36:12;;;;;;;0.17;0.17;;;;;;;8.99;100.00;100785.56;4987585;28;20100;-72
2022/12/24 04:38:37;;;;;;;0.20;0.20;;;;;;;9.15;100.00;100801.38;5000913;28;20559;-72
2022/12/24 04:41:07;;;;;;;0.20;0.20;;;;;;;9.28;100.00;100804.88;4998420;28;20057;-72
2022/12/24 04:43:33;;;;;;;0.13;0.13;;;;;;;9.07;100.00;100793.06;4979954;28;20033;-72
2022/12/24 04:46:19;;;;;;;0.20;0.20;;;;;;;9.11;100.00;100797.22;5004514;28;20040;-72
2022/12/24 04:48:46;;;;;;;0.20;0.20;;;;;;;9.12;100.00;100796.25;4991082;28;20062;-72
2022/12/24 04:51:12;;;;;;;0.20;0.20;;;;;;;9.08;100.00;100800.97;4998685;28;20080;-73
2022/12/24 04:53:38;;;;;;;0.20;0.20;;;;;;;9.13;100.00;100812.19;5000039;28;20422;-73
2022/12/24 04:56:13;;;;;;;0.20;0.20;;;;;;;9.14;100.00;100802.31;4985488;28;20038;-72
2022/12/24 04:58:39;;;;;;;0.20;0.20;;;;;;;9.19;100.00;100797.50;5000177;28;20052;-72
2022/12/24 05:01:11;;;;;;;0.20;0.20;;;;;;;9.06;100.00;100791.34;4997167;28;20072;-73
2022/12/24 05:03:37;;;;;;;0.30;0.30;;;;;;;9.32;100.00;100824.25;5009868;28;20026;-73
2022/12/24 05:06:03;;;;;;;0.20;0.20;;;;;;;9.22;100.00;100815.19;5007142;28;20041;-73
2022/12/24 05:08:28;;;;;;;0.25;0.25;;;;;;;9.17;100.00;100804.78;5015871;28;20400;-72
2022/12/24 05:10:58;;;;;;;0.20;0.20;;;;;;;9.16;100.00;100778.97;4987366;28;20030;-72
2022/12/24 05:13:24;;;;;;;0.10;0.10;;;;;;;9.21;100.00;100805.44;4989463;28;20084;-72
2022/12/24 05:15:49;;;;;;;0.20;0.20;;;;;;;9.05;100.00;100794.97;5007149;28;20030;-72
2022/12/24 05:18:15;;;;;;;0.20;0.20;;;;;;;9.02;100.00;100797.88;5007907;28;20030;-72
2022/12/24 05:20:40;;;;;;;0.20;0.20;;;;;;;9.24;100.00;100830.19;5001665;28;20113;-73
2022/12/24 05:28:34;;;;;;;0.20;0.20;;;;;;;8.97;100.00;100803.56;4996903;28;20104;-72
2022/12/24 05:30:59;;;;;;;0.10;0.10;;;;;;;9.03;100.00;100815.66;4999968;28;20476;-72
2022/12/24 05:33:24;;;;;;;0.17;0.17;;;;;;;9.07;100.00;100825.19;5003586;28;20499;-73
2022/12/24 05:35:51;;;;;;;0.20;0.20;;;;;;;8.93;100.00;100799.41;5011281;28;20445;-72
2022/12/24 05:38:16;;;;;;;0.17;0.17;;;;;;;9.04;100.00;100823.56;4999883;28;20585;-72
2022/12/24 05:40:42;;;;;;;0.20;0.20;;;;;;;9.00;100.00;100836.34;4984820;28;20026;-72
2022/12/24 05:43:07;;;;;;;0.20;0.20;;;;;;;8.91;100.00;100812.03;5006499;28;20066;-72
2022/12/24 05:45:32;;;;;;;0.20;0.20;;;;;;;8.81;100.00;100801.13;4994987;28;20032;-73
2022/12/24 05:47:57;;;;;;;0.10;0.10;;;;;;;9.00;100.00;100825.63;5006244;28;20042;-72
2022/12/24 05:50:23;;;;;;;0.20;0.20;;;;;;;8.94;100.00;100835.91;5000650;28;20033;-72
2022/12/24 05:52:48;;;;;;;0.20;0.20;;;;;;;8.67;100.00;100800.28;4990043;28;20413;-71
2022/12/24 05:55:14;;;;;;;0.20;0.20;;;;;;;8.69;100.00;100805.53;4994207;28;20036;-71
2022/12/24 05:57:40;;;;;;;0.15;0.15;;;;;;;8.84;100.00;100833.88;4998478;28;20389;-72
2022/12/24 06:00:06;;;;;;;0.20;0.20;;;;;;;8.66;100.00;100811.94;4999508;28;20026;-71
2022/12/24 06:02:31;;;;;;;0.10;0.10;;;;;;;8.73;100.00;100830.25;5011474;28;20037;-70
2022/12/24 06:04:56;;;;;;;0.20;0.20;;;;;;;8.70;100.00;100840.22;4998692;28;20194;-71
2022/12/24 06:07:22;;;;;;;0.20;0.20;;;;;;;8.66;100.00;100830.69;4989812;28;20527;-71
2022/12/24 06:09:47;;;;;;;0.17;0.17;;;;;;;8.75;100.00;100839.88;4982632;28;20515;-71
2022/12/24 06:12:12;;;;;;;0.10;0.10;;;;;;;8.79;100.00;100857.44;4983217;28;20025;-71
2022/12/24 06:14:38;;;;;;;0.28;0.28;;;;;;;8.84;100.00;100867.84;4995416;28;20038;-71
2022/12/24 06:17:03;;;;;;;0.20;0.20;;;;;;;8.84;100.00;100859.81;4999735;28;20041;-71
2022/12/24 06:19:28;;;;;;;0.22;0.22;;;;;;;8.80;100.00;100861.84;4996536;28;20084;-72
2022/12/24 06:21:54;;;;;;;0.20;0.20;;;;;;;8.83;100.00;100858.09;4975739;28;20510;-71
2022/12/24 06:24:19;;;;;;;0.20;0.20;;;;;;;8.80;100.00;100866.34;4978811;28;20043;-72
2022/12/24 06:26:44;;;;;;;0.13;0.13;;;;;;;8.78;100.00;100868.28;4989383;28;20486;-73
2022/12/24 06:29:10;;;;;;;0.20;0.20;;;;;;;8.73;100.00;100862.38;4986389;28;20125;-71
2022/12/24 06:31:36;;;;;;;0.20;0.20;;;;;;;8.86;100.00;100898.06;4990460;28;20037;-72
2022/12/24 06:34:02;;;;;;;0.30;0.30;;;;;;;8.88;100.00;100887.22;4977791;28;20056;-71
2022/12/24 06:36:27;;;;;;;0.20;0.20;;;;;;;8.87;100.00;100891.72;4989452;28;20030;-71
2022/12/24 06:38:53;;;;;;;0.20;0.20;;;;;;;8.79;100.00;100886.88;4996828;28;20026;-71
2022/12/24 06:41:19;;;;;;;0.28;0.28;;;;;;;8.69;100.00;100862.59;4999697;28;20029;-72
2022/12/24 06:43:46;;;;;;;0.20;0.20;;;;;;;8.80;100.00;100882.41;5000504;28;20441;-71
2022/12/24 06:46:12;;;;;;;0.20;0.20;;;;;;;8.60;100.00;100873.94;4996304;28;20033;-71
2022/12/24 06:48:37;;;;;;;0.20;0.20;;;;;;;8.50;100.00;100876.38;4999493;28;20037;-71
2022/12/24 06:51:03;;;;;;;0.20;0.20;;;;;;;8.50;100.00;100886.25;4999560;28;20029;-71
2022/12/24 06:53:28;;;;;;;0.20;0.20;;;;;;;8.48;100.00;100897.03;4995465;28;20087;-72
2022/12/24 06:56:08;;;;;;;0.28;0.28;;;;;;;8.49;100.00;100898.75;5003326;28;20068;-71
2022/12/24 06:58:34;;;;;;;0.22;0.22;;;;;;;8.31;100.00;100884.78;4992324;28;20472;-71
2022/12/24 07:01:01;;;;;;;0.20;0.20;;;;;;;8.43;100.00;100912.53;4996962;28;20064;-71
2022/12/24 07:03:27;;;;;;;0.20;0.20;;;;;;;8.50;100.00;100910.31;5015883;28;20428;-71
2022/12/24 07:05:52;;;;;;;0.20;0.20;;;;;;;8.48;100.00;100899.72;4999794;28;20048;-71
2022/12/24 07:08:18;;;;;;;0.20;0.20;;;;;;;8.51;100.00;100887.94;5003665;28;20026;-71
2022/12/24 07:10:43;;;;;;;0.20;0.20;;;;;;;8.43;100.00;100874.19;5005314;28;20128;-71
2022/12/24 07:13:08;;;;;;;0.22;0.22;;;;;;;8.46;100.00;100892.72;4982655;28;20030;-71
2022/12/24 07:15:34;;;;;;;0.20;0.20;;;;;;;8.64;100.00;100915.56;5003472;28;20544;-72
2022/12/24 07:17:59;;;;;;;0.20;0.20;;;;;;;8.75;100.00;100917.50;4988508;28;20480;-73
2022/12/24 07:20:24;;;;;;;0.20;0.20;;;;;;;8.80;100.00;100906.50;5000005;28;20029;-71
2022/12/24 07:22:50;;;;;;;0.10;0.10;;;;;;;8.89;100.00;100910.34;5003281;28;20579;-71
2022/12/24 07:25:15;;;;;;;0.28;0.28;;;;;;;8.93;100.00;100927.94;4997899;28;20025;-71
2022/12/24 07:27:40;;;;;;;0.20;0.20;;;;;;;8.91;100.00;100919.97;4996676;28;20308;-71
2022/12/24 07:30:07;;;;;;;0.20;0.20;;;;;;;8.85;100.00;100931.16;4986616;28;20072;-71
2022/12/24 07:32:32;;;;;;;0.13;0.13;;;;;;;8.80;100.00;100911.84;4987835;28;20061;-72
2022/12/24 07:34:57;;;;;;;0.30;0.30;;;;;;;8.78;100.00;100922.66;5001110;28;20137;-72
2022/12/24 07:37:23;;;;;;;0.20;0.20;;;;;;;8.83;100.00;100939.25;4998493;28;20042;-71
2022/12/24 07:39:48;;;;;;;0.20;0.20;;;;;;;8.88;100.00;100948.81;4988194;28;20053;-72
2022/12/24 07:42:14;;;;;;;0.20;0.20;;;;;;;8.85;100.00;100944.53;4997759;28;20044;-73
2022/12/24 07:44:39;;;;;;;0.20;0.20;;;;;;;8.89;100.00;100956.72;5005182;28;20069;-71
2022/12/24 07:47:04;;;;;;;0.13;0.13;;;;;;;8.85;100.00;100968.63;5016439;28;20115;-71
2022/12/24 07:49:30;;;;;;;0.20;0.20;;;;;;;8.78;100.00;100970.00;5003925;28;20034;-71
2022/12/24 07:51:55;;;;;;;0.30;0.30;;;;;;;8.79;100.00;100964.53;5001870;28;20500;-72
2022/12/24 07:54:20;;;;;;;0.28;0.28;;;;;;;8.75;100.00;100963.03;5001981;28;20048;-72
2022/12/24 07:56:46;;;;;;;0.20;0.20;;;;;;;8.83;100.00;100983.94;5010177;28;20481;-72
2022/12/24 07:59:12;;;;;;;0.20;0.20;;;;;;;8.79;100.00;100964.53;4999861;28;20112;-71
2022/12/24 08:01:37;;;;;;;0.30;0.30;;;;;;;9.06;100.00;100990.38;4997793;28;20084;-71
2022/12/24 08:04:03;;;;;;;0.30;0.30;;;;;;;9.08;100.00;101006.34;4998000;28;20061;-72
2022/12/24 08:06:28;;;;;;;0.13;0.13;;;;;;;9.05;100.00;101006.56;5001530;28;20111;-72
2022/12/24 08:08:53;;;;;;;0.20;0.20;;;;;;;9.06;100.00;101010.97;4994533;28;20061;-71
2022/12/24 08:11:19;;;;;;;0.15;0.15;;;;;;;8.94;100.00;101010.81;4979695;28;20483;-71
2022/12/24 08:13:44;;;;;;;0.28;0.28;;;;;;;8.92;100.00;101027.97;4989091;28;20073;-71
2022/12/24 08:16:09;;;;;;;0.20;0.20;;;;;;;8.89;100.00;101029.00;4994583;28;20130;-71
2022/12/24 08:18:35;;;;;;;0.20;0.20;;;;;;;9.03;100.00;101035.28;4992583;28;20434;-72
2022/12/24 08:21:00;;;;;;;0.20;0.20;;;;;;;9.00;100.00;101044.38;4993197;28;20446;-71
2022/12/24 08:23:25;;;;;;;0.20;0.20;;;;;;;9.00;100.00;101042.56;4996590;28;20036;-72
2022/12/24 08:25:51;;;;;;;0.20;0.20;;;;;;;9.04;100.00;101039.66;4992722;28;20183;-71
2022/12/24 08:28:18;;;;;;;0.20;0.20;;;;;;;9.06;100.00;101059.16;5007344;28;20030;-71
2022/12/24 08:30:44;;;;;;;0.20;0.20;;;;;;;8.81;100.00;101026.03;4989018;28;20037;-71
2022/12/24 08:33:09;;;;;;;0.20;0.20;;;;;;;8.83;100.00;101042.84;4998502;28;20029;-72
2022/12/24 08:35:35;;;;;;;0.20;0.20;;;;;;;8.89;100.00;101057.63;4992007;28;20121;-71
2022/12/24 08:38:00;;;;;;;0.10;0.10;;;;;;;8.65;100.00;101051.13;4990040;28;20034;-71
2022/12/24 08:40:25;;;;;;;0.20;0.20;;;;;;;8.84;100.00;101061.47;4996564;28;20065;-71
2022/12/24 08:42:51;;;;;;;0.20;0.20;;;;;;;8.72;100.00;101058.75;4997819;28;20121;-71
2022/12/24 08:45:16;;;;;;;0.10;0.10;;;;;;;8.85;100.00;101062.34;5003702;28;20026;-71
2022/12/24 08:47:42;;;;;;;0.28;0.28;;;;;;;8.71;100.00;101041.84;5001048;28;20030;-71
2022/12/24 08:50:09;;;;;;;0.13;0.13;;;;;;;8.83;100.00;101065.09;4999519;28;20040;-71
2022/12/24 08:52:34;;;;;;;0.17;0.17;;;;;;;8.85;100.00;101057.84;5014056;28;20022;-71
2022/12/24 08:55:00;;;;;;;0.20;0.20;;;;;;;8.74;100.00;101048.81;5001851;28;20052;-71
2022/12/24 08:57:25;;;;;;;0.30;0.30;;;;;;;8.89;100.00;101061.16;4995503;28;20038;-71
2022/12/24 08:59:50;;;;;;;0.30;0.30;;;;;;;8.78;100.00;101055.66;5001846;28;20087;-71
2022/12/24 09:02:16;;;;;;;0.20;0.20;;;;;;;8.99;100.00;101067.63;4996322;28;20066;-71
2022/12/24 09:04:42;;;;;;;0.10;0.10;;;;;;;8.92;100.00;101068.97;4998233;28;20072;-74
2022/12/24 09:07:07;;;;;;;0.25;0.25;;;;;;;9.00;100.00;101063.13;4996753;28;20040;-71
2022/12/24 09:09:33;;;;;;;0.20;0.20;;;;;;;9.30;100.00;101088.75;4995763;28;20133;-71
2022/12/24 09:11:58;;;;;;;0.22;0.22;;;;;;;9.39;100.00;101100.69;4988795;28;20345;-72
2022/12/24 09:14:23;;;;;;;0.10;0.10;;;;;;;9.15;100.00;101066.56;4992132;28;20496;-71
2022/12/24 09:16:49;;;;;;;0.10;0.10;;;;;;;9.42;100.00;101092.41;5000069;28;20061;-71
2022/12/24 09:19:14;;;;;;;0.20;0.20;;;;;;;9.60;100.00;101096.53;4997178;28;20592;-72
2022/12/24 09:21:39;;;;;;;0.20;0.20;;;;;;;9.64;100.00;101104.38;4993179;28;20030;-72
2022/12/24 09:24:05;;;;;;;0.20;0.20;;;;;;;9.65;100.00;101092.69;4993319;28;20132;-71
2022/12/24 09:26:30;;;;;;;0.28;0.28;;;;;;;9.67;100.00;101088.03;4996146;28;20447;-72
2022/12/24 09:28:57;;;;;;;0.20;0.20;;;;;;;9.85;100.00;101102.84;5000550;28;20029;-71
2022/12/24 09:31:22;;;;;;;0.20;0.20;;;;;;;10.11;100.00;101118.91;4994910;28;20100;-71
2022/12/24 09:33:49;;;;;;;0.20;0.20;;;;;;;10.02;100.00;101098.09;4992770;28;20038;-71
2022/12/24 09:36:15;;;;;;;0.20;0.20;;;;;;;10.10;100.00;101114.50;4998572;28;20037;-74
2022/12/24 09:38:40;;;;;;;0.20;0.20;;;;;;;10.14;100.00;101107.09;4983482;28;20584;-71
2022/12/24 09:41:29;;;;;;;0.20;0.20;;;;;;;10.00;100.00;101111.63;4983470;28;20022;-71
2022/12/24 09:44:16;;;;;;;0.10;0.10;;;;;;;9.89;100.00;101111.53;5001224;28;20068;-71
2022/12/24 09:46:42;;;;;;;0.20;0.20;;;;;;;9.97;100.00;101125.25;4997125;28;20037;-71
2022/12/24 09:49:13;;;;;;;0.10;0.10;;;;;;;9.92;100.00;101137.28;4998202;28;20029;-71
2022/12/24 09:51:43;;;;;;;0.10;0.10;;;;;;;9.70;100.00;101152.16;4995363;28;20041;-72
2022/12/24 09:54:21;;;;;;;0.13;0.13;;;;;;;9.64;100.00;101150.78;4998883;28;20288;-71
2022/12/24 09:56:47;;;;;;;0.20;0.20;;;;;;;9.68;100.00;101154.09;4982563;28;20026;-71
2022/12/24 09:59:20;;;;;;;0.20;0.20;;;;;;;9.76;100.00;101141.03;4999175;28;20397;-71
2022/12/24 10:01:45;;;;;;;0.22;0.22;;;;;;;10.01;100.00;101118.72;4998612;28;20032;-72
2022/12/24 10:04:26;;;;;;;0.10;0.10;;;;;;;10.46;100.00;101153.09;5011534;28;20038;-72
2022/12/24 10:07:00;;;;;;;0.20;0.20;;;;;;;10.59;100.00;101150.41;4997991;28;20377;-71
2022/12/24 10:09:46;;;;;;;0.20;0.20;;;;;;;10.97;100.00;101177.22;4998949;28;20034;-72
2022/12/24 10:12:34;;;;;;;0.20;0.20;;;;;;;10.90;100.00;101183.03;4997861;28;20030;-73
2022/12/24 10:15:09;;;;;;;0.20;0.20;;;;;;;11.39;100.00;101185.72;5000894;28;20037;-71
2022/12/24 10:17:44;;;;;;;0.10;0.10;;;;;;;11.33;100.00;101175.44;5001609;28;20069;-71
2022/12/24 10:20:18;;;;;;;0.20;0.20;;;;;;;11.24;100.00;101177.84;4995692;28;20049;-71
2022/12/24 10:23:19;;;;;;;0.20;0.20;;;;;;;11.27;100.00;101183.97;4996428;28;20038;-72
2022/12/24 10:26:06;;;;;;;0.10;0.10;;;;;;;11.26;100.00;101180.41;4999363;28;20042;-73
2022/12/24 10:28:46;;;;;;;0.10;0.10;;;;;;;11.08;100.00;101156.66;5002473;28;20064;-74
2022/12/24 10:31:12;;;;;;;0.10;0.10;;;;;;;10.95;100.00;101170.13;4987326;28;20038;-73
2022/12/24 10:33:44;;;;;;;0.20;0.20;;;;;;;10.72;100.00;101170.97;5004740;28;20034;-73
2022/12/24 10:36:17;;;;;;;0.20;0.20;;;;;;;10.65;100.00;101174.09;4997102;28;20046;-74
2022/12/24 10:38:42;;;;;;;0.17;0.17;;;;;;;10.33;100.00;101161.16;5001586;28;20042;-73
2022/12/24 10:41:08;;;;;;;0.10;0.10;;;;;;;10.24;100.00;101156.47;5005658;28;20493;-74
2022/12/24 10:43:34;;;;;;;0.20;0.20;;;;;;;10.19;100.00;101142.50;5002362;28;20026;-73
2022/12/24 10:46:02;;;;;;;0.20;0.20;;;;;;;10.33;100.00;101166.50;5007643;28;20387;-73
2022/12/24 10:48:30;;;;;;;0.10;0.10;;;;;;;10.54;100.00;101167.81;5006125;28;20069;-73
2022/12/24 10:51:04;;;;;;;0.10;0.10;;;;;;;10.40;100.00;101177.72;5003936;28;20026;-75
2022/12/24 10:53:39;;;;;;;0.15;0.15;;;;;;;10.13;100.00;101151.84;5003734;28;20030;-73
2022/12/24 10:56:07;;;;;;;0.20;0.20;;;;;;;10.23;100.00;101178.91;4984470;28;20038;-74
2022/12/24 10:58:33;;;;;;;0.10;0.10;;;;;;;10.18;100.00;101179.22;4986901;28;20141;-72
2022/12/24 11:00:58;;;;;;;0.20;0.20;;;;;;;10.03;100.00;101156.16;4991684;28;20062;-73
2022/12/24 11:03:34;;;;;;;0.20;0.20;;;;;;;10.35;100.00;101183.38;4997451;28;20128;-72
2022/12/24 11:06:04;;;;;;;0.10;0.10;;;;;;;10.43;100.00;101179.31;4997011;28;20032;-72
2022/12/24 11:08:30;;;;;;;0.10;0.10;;;;;;;10.46;100.00;101179.09;5004643;28;20077;-71
2022/12/24 11:11:00;;;;;;;0.20;0.20;;;;;;;10.42;100.00;101175.78;5002347;28;20064;-71
2022/12/24 11:13:28;;;;;;;0.13;0.13;;;;;;;10.25;100.00;101187.69;4994489;28;20056;-72
2022/12/24 11:16:05;;;;;;;0.20;0.20;;;;;;;10.35;100.00;101186.06;4996234;28;20120;-72
2022/12/24 11:18:33;;;;;;;0.10;0.10;;;;;;;10.54;100.00;101176.72;4997603;28;20033;-71
2022/12/24 11:20:59;;;;;;;0.20;0.20;;;;;;;10.21;100.00;101165.56;4997933;28;20048;-71
2022/12/24 11:23:26;;;;;;;0.20;0.20;;;;;;;10.36;100.00;101177.03;4996193;28;20035;-72
2022/12/24 11:25:51;;;;;;;0.10;0.10;;;;;;;10.25;100.00;101152.81;4996314;28;20042;-72
2022/12/24 11:28:21;;;;;;;0.13;0.13;;;;;;;10.47;100.00;101176.28;5000023;28;20383;-72
2022/12/24 11:30:55;;;;;;;0.20;0.20;;;;;;;10.23;100.00;101149.38;5012508;28;20029;-71
2022/12/24 11:33:21;;;;;;;0.10;0.10;;;;;;;10.44;100.00;101178.34;4999063;28;20029;-71
2022/12/24 11:35:49;;;;;;;0.10;0.10;;;;;;;10.30;100.00;101182.88;4995448;28;20037;-71
2022/12/24 11:38:20;;;;;;;0.20;0.20;;;;;;;10.33;100.00;101187.97;5000412;28;20111;-72